Terminal Aerodrome Forecast
Issued by NWS Newport/Morehead City, NC

Home | Current Version | Previous Version | Graphics & Text | Print | Product List | Glossary On
Versions: 1 2 3 4 5 6 7 8 9 10 11 12 13 14 15
242
FTUS42 KMHX 282245 AAB
TAFEWN
TAF AMD
KEWN 282245Z 2823/2918 22008KT P6SM VCSH FEW020 SCT110
      TEMPO 2823/2824 -TSRA BKN035CB
     FM290100 VRB04KT P6SM SCT050
     FM291400 01008KT P6SM BKN250=

USA.gov is the U.S. government's official web portal to all federal, state and local government web resources and services.